Etusivu
METAR-TAF:

METAR-TAF

Lentoasemat :

Brønnøysund, Norja

Leveyspiiri: 65-28N, Pituuspiiri: 012-13E, korkeus merenpinnasta: 0 m

Tämänhetkinen sää

Tämä raportti tehtiin 18 minuuttia sitten, kello 11.50 UTC
Tuuli 8 kn lännestä/luoteesta
Lämpötila 14°C
Kosteus 77%
Ilmanpaine 1017 hPa
Näkyvyys 10 km tai enemmän
Muutamia pilviä 1200 ft:n korkeudessa
Hajonneita pilviä 1400 ft:n korkeudessa

METAR: ENBN 121150Z 29008KT 9999 FEW012 BKN014 14/10 Q1017

Aika: 14:08 (12:08 UTC)

Sääennuste

Tämä raportti tehtiin 1 tunti ja 8 minuuttia sitten, kello 11.00 UTC
Ennuste voimassa 12. päivästä klo 12 UTC - 12. päivään klo 21 UTC
Tuuli 8 kn lännestä/luoteesta
Näkyvyys 10 km tai enemmän
Muutamia pilviä 800 ft:n korkeudessa
Hajonneita pilviä 1800 ft:n korkeudessa
Ajoittain
12. päivästä klo 12 UTC - 12. päivään klo 21 UTC
Hajonneita pilviä 1200 ft:n korkeudessa

TAF: ENBN 121100Z 1212/1221 29008KT 9999 FEW008 BKN018 TEMPO 1212/1221 BKN012

Säähavainnot ja -ennusteet yli 4000 lentoasemalta (METAR- ja TAF-raportit).

Käytössä olevat sääasemat on merkitty karttaan keltaisilla ja punaisilla pisteillä.

Aseta hiiri pisteen päälle nähdäksesi sääaseman nimen.

Klikkaa sitten nähdäksesi säähavainnot ja -ennusteet.

Kartan vaihtaminen: klikkaa mustalla rastilla varustettuja vihreitä pisteitä, niin voit zoomata sisään; viivalla varustettua vihreää pistettä, niin voit zoomata ulos tai vihreitä nuolia, niin pääset viereisille kartoille.


METAR-TAF: